sensor_id;sensor_type;location;lat;lon;timestamp;P1;durP1;ratioP1;P2;durP2;ratioP2
16577;SDS011;8401;52.528;13.340;2024-02-21T00:00:56;12.97;;;6.00;;
16577;SDS011;8401;52.528;13.340;2024-02-21T00:03:21;16.67;;;6.73;;
16577;SDS011;8401;52.528;13.340;2024-02-21T00:05:47;14.53;;;6.10;;
16577;SDS011;8401;52.528;13.340;2024-02-21T00:08:13;17.37;;;5.20;;
16577;SDS011;8401;52.528;13.340;2024-02-21T00:10:38;20.17;;;6.20;;
16577;SDS011;8401;52.528;13.340;2024-02-21T00:13:04;16.07;;;5.00;;
16577;SDS011;8401;52.528;13.340;2024-02-21T00:15:29;14.33;;;5.47;;
16577;SDS011;8401;52.528;13.340;2024-02-21T00:17:55;16.57;;;6.23;;
16577;SDS011;8401;52.528;13.340;2024-02-21T00:20:21;13.47;;;5.27;;
16577;SDS011;8401;52.528;13.340;2024-02-21T00:22:46;13.80;;;5.67;;
16577;SDS011;8401;52.528;13.340;2024-02-21T00:25:12;14.43;;;5.20;;
16577;SDS011;8401;52.528;13.340;2024-02-21T00:27:38;15.70;;;5.80;;
16577;SDS011;8401;52.528;13.340;2024-02-21T00:30:04;16.97;;;5.47;;
16577;SDS011;8401;52.528;13.340;2024-02-21T00:32:30;15.93;;;5.83;;
16577;SDS011;8401;52.528;13.340;2024-02-21T00:34:57;16.57;;;5.80;;
16577;SDS011;8401;52.528;13.340;2024-02-21T00:37:22;14.87;;;5.10;;
16577;SDS011;8401;52.528;13.340;2024-02-21T00:39:48;18.47;;;5.70;;
16577;SDS011;8401;52.528;13.340;2024-02-21T00:42:14;18.77;;;5.13;;
16577;SDS011;8401;52.528;13.340;2024-02-21T00:44:39;12.17;;;5.37;;
16577;SDS011;8401;52.528;13.340;2024-02-21T00:47:05;13.47;;;4.93;;
16577;SDS011;8401;52.528;13.340;2024-02-21T00:49:31;10.07;;;4.90;;
16577;SDS011;8401;52.528;13.340;2024-02-21T00:51:56;10.77;;;4.53;;
16577;SDS011;8401;52.528;13.340;2024-02-21T00:54:22;15.97;;;4.97;;
16577;SDS011;8401;52.528;13.340;2024-02-21T00:56:48;12.33;;;5.33;;
16577;SDS011;8401;52.528;13.340;2024-02-21T00:59:13;17.87;;;5.77;;
16577;SDS011;8401;52.528;13.340;2024-02-21T01:01:39;18.57;;;5.37;;
16577;SDS011;8401;52.528;13.340;2024-02-21T01:04:07;22.00;;;6.50;;
16577;SDS011;8401;52.528;13.340;2024-02-21T01:06:34;20.23;;;7.00;;
16577;SDS011;8401;52.528;13.340;2024-02-21T01:09:00;17.07;;;5.97;;
16577;SDS011;8401;52.528;13.340;2024-02-21T01:11:25;14.33;;;5.70;;
16577;SDS011;8401;52.528;13.340;2024-02-21T01:13:51;21.43;;;6.27;;
16577;SDS011;8401;52.528;13.340;2024-02-21T01:16:17;17.17;;;5.73;;
16577;SDS011;8401;52.528;13.340;2024-02-21T01:18:42;16.27;;;6.47;;
16577;SDS011;8401;52.528;13.340;2024-02-21T01:21:08;15.00;;;4.77;;
16577;SDS011;8401;52.528;13.340;2024-02-21T01:23:35;12.63;;;5.30;;
16577;SDS011;8401;52.528;13.340;2024-02-21T01:26:02;15.30;;;5.10;;
16577;SDS011;8401;52.528;13.340;2024-02-21T01:28:28;16.90;;;5.37;;
16577;SDS011;8401;52.528;13.340;2024-02-21T01:30:54;13.73;;;4.53;;
16577;SDS011;8401;52.528;13.340;2024-02-21T01:33:20;11.73;;;4.50;;
16577;SDS011;8401;52.528;13.340;2024-02-21T01:35:46;16.37;;;5.00;;
16577;SDS011;8401;52.528;13.340;2024-02-21T01:38:15;15.53;;;4.37;;
16577;SDS011;8401;52.528;13.340;2024-02-21T01:40:40;12.40;;;5.40;;
16577;SDS011;8401;52.528;13.340;2024-02-21T01:43:15;12.13;;;4.70;;
16577;SDS011;8401;52.528;13.340;2024-02-21T01:45:42;13.40;;;4.13;;
16577;SDS011;8401;52.528;13.340;2024-02-21T01:48:10;14.43;;;4.63;;
16577;SDS011;8401;52.528;13.340;2024-02-21T01:50:36;10.83;;;4.23;;
16577;SDS011;8401;52.528;13.340;2024-02-21T01:53:02;11.70;;;4.47;;
16577;SDS011;8401;52.528;13.340;2024-02-21T01:55:28;17.27;;;4.83;;
16577;SDS011;8401;52.528;13.340;2024-02-21T01:57:54;16.90;;;5.03;;
16577;SDS011;8401;52.528;13.340;2024-02-21T02:00:20;14.43;;;4.53;;
16577;SDS011;8401;52.528;13.340;2024-02-21T02:02:46;13.33;;;4.37;;
16577;SDS011;8401;52.528;13.340;2024-02-21T02:05:11;14.33;;;4.50;;
16577;SDS011;8401;52.528;13.340;2024-02-21T02:07:37;15.63;;;4.47;;
16577;SDS011;8401;52.528;13.340;2024-02-21T02:10:03;14.17;;;5.47;;
16577;SDS011;8401;52.528;13.340;2024-02-21T02:12:29;10.93;;;6.10;;
16577;SDS011;8401;52.528;13.340;2024-02-21T02:15:01;16.20;;;4.97;;
16577;SDS011;8401;52.528;13.340;2024-02-21T02:17:31;13.73;;;4.33;;
16577;SDS011;8401;52.528;13.340;2024-02-21T02:19:56;11.03;;;4.53;;
16577;SDS011;8401;52.528;13.340;2024-02-21T02:22:23;12.13;;;4.50;;
16577;SDS011;8401;52.528;13.340;2024-02-21T02:24:53;13.17;;;5.27;;
16577;SDS011;8401;52.528;13.340;2024-02-21T02:27:19;16.53;;;4.83;;
16577;SDS011;8401;52.528;13.340;2024-02-21T02:29:45;17.23;;;4.97;;
16577;SDS011;8401;52.528;13.340;2024-02-21T02:32:10;13.23;;;4.40;;
16577;SDS011;8401;52.528;13.340;2024-02-21T02:34:39;14.80;;;5.20;;
16577;SDS011;8401;52.528;13.340;2024-02-21T02:37:05;8.80;;;5.00;;
16577;SDS011;8401;52.528;13.340;2024-02-21T02:39:30;15.93;;;4.90;;
16577;SDS011;8401;52.528;13.340;2024-02-21T02:41:56;16.80;;;4.90;;
16577;SDS011;8401;52.528;13.340;2024-02-21T02:44:22;13.70;;;4.60;;
16577;SDS011;8401;52.528;13.340;2024-02-21T02:46:47;11.80;;;5.03;;
16577;SDS011;8401;52.528;13.340;2024-02-21T02:49:13;11.37;;;5.30;;
16577;SDS011;8401;52.528;13.340;2024-02-21T02:51:42;19.50;;;5.73;;
16577;SDS011;8401;52.528;13.340;2024-02-21T02:54:08;11.63;;;4.57;;
16577;SDS011;8401;52.528;13.340;2024-02-21T02:56:34;13.27;;;4.53;;
16577;SDS011;8401;52.528;13.340;2024-02-21T02:59:00;17.10;;;5.70;;
16577;SDS011;8401;52.528;13.340;2024-02-21T03:01:25;13.60;;;5.07;;
16577;SDS011;8401;52.528;13.340;2024-02-21T03:03:52;16.57;;;5.67;;
16577;SDS011;8401;52.528;13.340;2024-02-21T03:06:18;13.87;;;6.50;;
16577;SDS011;8401;52.528;13.340;2024-02-21T03:08:44;12.40;;;5.43;;
16577;SDS011;8401;52.528;13.340;2024-02-21T03:11:10;11.87;;;5.33;;
16577;SDS011;8401;52.528;13.340;2024-02-21T03:13:36;13.60;;;6.57;;
16577;SDS011;8401;52.528;13.340;2024-02-21T03:16:01;16.17;;;6.40;;
16577;SDS011;8401;52.528;13.340;2024-02-21T03:18:27;16.60;;;5.90;;
16577;SDS011;8401;52.528;13.340;2024-02-21T03:20:53;14.00;;;6.00;;
16577;SDS011;8401;52.528;13.340;2024-02-21T03:23:19;17.50;;;5.43;;
16577;SDS011;8401;52.528;13.340;2024-02-21T03:25:44;14.40;;;5.93;;
16577;SDS011;8401;52.528;13.340;2024-02-21T03:28:10;15.53;;;5.83;;
16577;SDS011;8401;52.528;13.340;2024-02-21T03:30:36;14.63;;;6.30;;
16577;SDS011;8401;52.528;13.340;2024-02-21T03:33:02;24.60;;;6.40;;
16577;SDS011;8401;52.528;13.340;2024-02-21T03:35:28;18.87;;;6.20;;
16577;SDS011;8401;52.528;13.340;2024-02-21T03:37:54;17.33;;;6.47;;
16577;SDS011;8401;52.528;13.340;2024-02-21T03:40:19;16.00;;;6.37;;
16577;SDS011;8401;52.528;13.340;2024-02-21T03:42:45;13.63;;;6.63;;
16577;SDS011;8401;52.528;13.340;2024-02-21T03:45:10;15.80;;;6.03;;
16577;SDS011;8401;52.528;13.340;2024-02-21T03:47:36;16.70;;;6.07;;
16577;SDS011;8401;52.528;13.340;2024-02-21T03:50:02;15.27;;;7.33;;
16577;SDS011;8401;52.528;13.340;2024-02-21T03:52:27;17.30;;;6.97;;
16577;SDS011;8401;52.528;13.340;2024-02-21T03:54:53;17.23;;;6.90;;
16577;SDS011;8401;52.528;13.340;2024-02-21T03:57:20;16.23;;;7.00;;
16577;SDS011;8401;52.528;13.340;2024-02-21T03:59:46;13.57;;;6.17;;
16577;SDS011;8401;52.528;13.340;2024-02-21T04:02:14;14.40;;;6.10;;
16577;SDS011;8401;52.528;13.340;2024-02-21T04:04:42;14.57;;;6.50;;
16577;SDS011;8401;52.528;13.340;2024-02-21T04:07:11;19.83;;;7.33;;
16577;SDS011;8401;52.528;13.340;2024-02-21T04:09:37;16.57;;;7.10;;
16577;SDS011;8401;52.528;13.340;2024-02-21T04:12:03;16.40;;;6.87;;
16577;SDS011;8401;52.528;13.340;2024-02-21T04:14:29;13.10;;;7.07;;
16577;SDS011;8401;52.528;13.340;2024-02-21T04:16:54;14.07;;;6.33;;
16577;SDS011;8401;52.528;13.340;2024-02-21T04:19:20;14.93;;;6.57;;
16577;SDS011;8401;52.528;13.340;2024-02-21T04:21:45;13.23;;;6.63;;
16577;SDS011;8401;52.528;13.340;2024-02-21T04:24:11;16.50;;;6.67;;
16577;SDS011;8401;52.528;13.340;2024-02-21T04:26:37;20.17;;;7.67;;
16577;SDS011;8401;52.528;13.340;2024-02-21T04:29:02;20.37;;;6.73;;
16577;SDS011;8401;52.528;13.340;2024-02-21T04:31:28;13.83;;;6.30;;
16577;SDS011;8401;52.528;13.340;2024-02-21T04:33:53;17.27;;;6.93;;
16577;SDS011;8401;52.528;13.340;2024-02-21T04:36:19;12.93;;;6.20;;
16577;SDS011;8401;52.528;13.340;2024-02-21T04:38:45;13.67;;;6.97;;
16577;SDS011;8401;52.528;13.340;2024-02-21T04:41:10;15.30;;;7.00;;
16577;SDS011;8401;52.528;13.340;2024-02-21T04:43:36;14.90;;;6.73;;
16577;SDS011;8401;52.528;13.340;2024-02-21T04:46:01;15.70;;;6.70;;
16577;SDS011;8401;52.528;13.340;2024-02-21T04:48:27;13.97;;;6.30;;
16577;SDS011;8401;52.528;13.340;2024-02-21T04:50:53;16.03;;;6.00;;
16577;SDS011;8401;52.528;13.340;2024-02-21T04:53:19;14.37;;;6.67;;
16577;SDS011;8401;52.528;13.340;2024-02-21T04:55:44;13.33;;;6.17;;
16577;SDS011;8401;52.528;13.340;2024-02-21T04:58:10;20.23;;;6.87;;
16577;SDS011;8401;52.528;13.340;2024-02-21T05:00:36;18.40;;;6.13;;
16577;SDS011;8401;52.528;13.340;2024-02-21T05:03:02;13.37;;;6.40;;
16577;SDS011;8401;52.528;13.340;2024-02-21T05:05:27;12.47;;;6.20;;
16577;SDS011;8401;52.528;13.340;2024-02-21T05:07:53;12.60;;;6.20;;
16577;SDS011;8401;52.528;13.340;2024-02-21T05:10:19;15.23;;;6.63;;
16577;SDS011;8401;52.528;13.340;2024-02-21T05:12:45;13.27;;;6.43;;
16577;SDS011;8401;52.528;13.340;2024-02-21T05:15:11;19.00;;;6.70;;
16577;SDS011;8401;52.528;13.340;2024-02-21T05:17:36;17.73;;;6.73;;
16577;SDS011;8401;52.528;13.340;2024-02-21T05:20:02;14.83;;;6.20;;
16577;SDS011;8401;52.528;13.340;2024-02-21T05:22:28;15.53;;;6.23;;
16577;SDS011;8401;52.528;13.340;2024-02-21T05:24:54;17.43;;;6.87;;
16577;SDS011;8401;52.528;13.340;2024-02-21T05:27:19;15.77;;;6.10;;
16577;SDS011;8401;52.528;13.340;2024-02-21T05:29:45;14.50;;;6.23;;
16577;SDS011;8401;52.528;13.340;2024-02-21T05:32:13;17.67;;;6.97;;
16577;SDS011;8401;52.528;13.340;2024-02-21T05:34:38;14.47;;;7.30;;
16577;SDS011;8401;52.528;13.340;2024-02-21T05:37:04;18.53;;;6.87;;
16577;SDS011;8401;52.528;13.340;2024-02-21T05:39:30;17.70;;;6.73;;
16577;SDS011;8401;52.528;13.340;2024-02-21T05:41:56;16.87;;;6.57;;
16577;SDS011;8401;52.528;13.340;2024-02-21T05:44:21;15.20;;;6.53;;
16577;SDS011;8401;52.528;13.340;2024-02-21T05:46:47;17.20;;;7.13;;
16577;SDS011;8401;52.528;13.340;2024-02-21T05:49:13;20.17;;;6.40;;
16577;SDS011;8401;52.528;13.340;2024-02-21T05:51:39;16.03;;;7.47;;
16577;SDS011;8401;52.528;13.340;2024-02-21T05:54:05;14.90;;;6.50;;
16577;SDS011;8401;52.528;13.340;2024-02-21T05:56:32;16.80;;;8.27;;
16577;SDS011;8401;52.528;13.340;2024-02-21T05:58:58;17.47;;;5.90;;
16577;SDS011;8401;52.528;13.340;2024-02-21T06:01:23;16.23;;;7.60;;
16577;SDS011;8401;52.528;13.340;2024-02-21T06:03:49;14.17;;;6.97;;
16577;SDS011;8401;52.528;13.340;2024-02-21T06:06:15;17.73;;;7.17;;
16577;SDS011;8401;52.528;13.340;2024-02-21T06:08:40;20.50;;;7.30;;
16577;SDS011;8401;52.528;13.340;2024-02-21T06:11:06;17.83;;;6.57;;
16577;SDS011;8401;52.528;13.340;2024-02-21T06:13:32;16.63;;;6.83;;
16577;SDS011;8401;52.528;13.340;2024-02-21T06:15:57;18.33;;;7.80;;
16577;SDS011;8401;52.528;13.340;2024-02-21T06:18:23;21.23;;;7.67;;
16577;SDS011;8401;52.528;13.340;2024-02-21T06:20:49;18.63;;;8.43;;
16577;SDS011;8401;52.528;13.340;2024-02-21T06:23:17;14.43;;;7.17;;
16577;SDS011;8401;52.528;13.340;2024-02-21T06:25:43;16.17;;;7.63;;
16577;SDS011;8401;52.528;13.340;2024-02-21T06:28:09;20.60;;;8.13;;
16577;SDS011;8401;52.528;13.340;2024-02-21T06:30:35;15.47;;;7.37;;
16577;SDS011;8401;52.528;13.340;2024-02-21T06:33:01;18.20;;;7.73;;
16577;SDS011;8401;52.528;13.340;2024-02-21T06:35:27;14.30;;;7.27;;
16577;SDS011;8401;52.528;13.340;2024-02-21T06:37:53;14.57;;;7.87;;
16577;SDS011;8401;52.528;13.340;2024-02-21T06:40:22;16.10;;;7.27;;
16577;SDS011;8401;52.528;13.340;2024-02-21T06:42:48;19.07;;;7.70;;
16577;SDS011;8401;52.528;13.340;2024-02-21T06:45:15;18.57;;;7.73;;
16577;SDS011;8401;52.528;13.340;2024-02-21T06:47:41;15.93;;;7.27;;
16577;SDS011;8401;52.528;13.340;2024-02-21T06:50:07;14.80;;;7.53;;
16577;SDS011;8401;52.528;13.340;2024-02-21T06:52:33;15.17;;;7.30;;
16577;SDS011;8401;52.528;13.340;2024-02-21T06:55:00;16.27;;;7.00;;
16577;SDS011;8401;52.528;13.340;2024-02-21T06:57:26;18.33;;;8.03;;
16577;SDS011;8401;52.528;13.340;2024-02-21T06:59:53;16.70;;;8.00;;
16577;SDS011;8401;52.528;13.340;2024-02-21T07:02:18;19.53;;;7.97;;
16577;SDS011;8401;52.528;13.340;2024-02-21T07:04:44;16.33;;;7.90;;
16577;SDS011;8401;52.528;13.340;2024-02-21T07:07:10;18.20;;;6.80;;
16577;SDS011;8401;52.528;13.340;2024-02-21T07:09:35;13.47;;;7.00;;
16577;SDS011;8401;52.528;13.340;2024-02-21T07:12:01;15.57;;;7.43;;
16577;SDS011;8401;52.528;13.340;2024-02-21T07:14:29;12.23;;;8.10;;
16577;SDS011;8401;52.528;13.340;2024-02-21T07:16:57;16.93;;;7.73;;
16577;SDS011;8401;52.528;13.340;2024-02-21T07:19:23;17.00;;;8.00;;
16577;SDS011;8401;52.528;13.340;2024-02-21T07:21:48;14.57;;;7.93;;
16577;SDS011;8401;52.528;13.340;2024-02-21T07:24:14;17.10;;;8.37;;
16577;SDS011;8401;52.528;13.340;2024-02-21T07:26:43;16.17;;;8.57;;
16577;SDS011;8401;52.528;13.340;2024-02-21T07:29:09;15.67;;;7.30;;
16577;SDS011;8401;52.528;13.340;2024-02-21T07:31:40;12.77;;;6.70;;
16577;SDS011;8401;52.528;13.340;2024-02-21T07:34:09;14.77;;;6.63;;
16577;SDS011;8401;52.528;13.340;2024-02-21T07:36:34;16.07;;;7.13;;
16577;SDS011;8401;52.528;13.340;2024-02-21T07:39:00;14.77;;;5.33;;
16577;SDS011;8401;52.528;13.340;2024-02-21T07:41:26;16.40;;;7.20;;
16577;SDS011;8401;52.528;13.340;2024-02-21T07:43:53;15.10;;;8.03;;
16577;SDS011;8401;52.528;13.340;2024-02-21T07:46:19;13.53;;;7.53;;
16577;SDS011;8401;52.528;13.340;2024-02-21T07:48:47;14.60;;;6.63;;
16577;SDS011;8401;52.528;13.340;2024-02-21T07:51:13;14.73;;;7.03;;
16577;SDS011;8401;52.528;13.340;2024-02-21T07:53:41;14.47;;;6.73;;
16577;SDS011;8401;52.528;13.340;2024-02-21T07:56:10;13.10;;;6.97;;
16577;SDS011;8401;52.528;13.340;2024-02-21T07:58:36;12.43;;;6.80;;
16577;SDS011;8401;52.528;13.340;2024-02-21T08:01:01;12.77;;;7.00;;
16577;SDS011;8401;52.528;13.340;2024-02-21T08:03:27;12.37;;;6.70;;
16577;SDS011;8401;52.528;13.340;2024-02-21T08:05:53;15.13;;;7.20;;
16577;SDS011;8401;52.528;13.340;2024-02-21T08:08:18;20.27;;;7.50;;
16577;SDS011;8401;52.528;13.340;2024-02-21T08:10:46;16.47;;;7.13;;
16577;SDS011;8401;52.528;13.340;2024-02-21T08:13:12;18.80;;;7.57;;
16577;SDS011;8401;52.528;13.340;2024-02-21T08:15:37;16.57;;;7.37;;
16577;SDS011;8401;52.528;13.340;2024-02-21T08:18:04;10.87;;;6.27;;
16577;SDS011;8401;52.528;13.340;2024-02-21T08:20:30;11.47;;;7.27;;
16577;SDS011;8401;52.528;13.340;2024-02-21T08:22:56;18.97;;;7.93;;
16577;SDS011;8401;52.528;13.340;2024-02-21T08:25:21;13.83;;;6.57;;
16577;SDS011;8401;52.528;13.340;2024-02-21T08:27:47;14.10;;;6.80;;
16577;SDS011;8401;52.528;13.340;2024-02-21T08:30:13;16.37;;;7.23;;
16577;SDS011;8401;52.528;13.340;2024-02-21T08:32:39;12.87;;;7.90;;
16577;SDS011;8401;52.528;13.340;2024-02-21T08:35:04;14.63;;;7.07;;
16577;SDS011;8401;52.528;13.340;2024-02-21T08:37:30;18.33;;;7.70;;
16577;SDS011;8401;52.528;13.340;2024-02-21T08:39:56;17.43;;;7.70;;
16577;SDS011;8401;52.528;13.340;2024-02-21T08:42:21;21.67;;;8.50;;
16577;SDS011;8401;52.528;13.340;2024-02-21T08:44:47;15.40;;;6.90;;
16577;SDS011;8401;52.528;13.340;2024-02-21T08:47:13;13.80;;;7.27;;
16577;SDS011;8401;52.528;13.340;2024-02-21T08:49:38;15.50;;;7.63;;
16577;SDS011;8401;52.528;13.340;2024-02-21T08:52:04;16.37;;;7.73;;
16577;SDS011;8401;52.528;13.340;2024-02-21T08:54:30;12.33;;;6.77;;
16577;SDS011;8401;52.528;13.340;2024-02-21T08:56:57;16.07;;;7.57;;
16577;SDS011;8401;52.528;13.340;2024-02-21T08:59:23;17.13;;;7.53;;
16577;SDS011;8401;52.528;13.340;2024-02-21T09:01:49;15.07;;;7.77;;
16577;SDS011;8401;52.528;13.340;2024-02-21T09:04:17;14.57;;;7.13;;
16577;SDS011;8401;52.528;13.340;2024-02-21T09:06:42;15.10;;;8.10;;
16577;SDS011;8401;52.528;13.340;2024-02-21T09:09:08;18.07;;;7.50;;
16577;SDS011;8401;52.528;13.340;2024-02-21T09:11:34;16.90;;;8.10;;
16577;SDS011;8401;52.528;13.340;2024-02-21T09:14:00;12.37;;;8.27;;
16577;SDS011;8401;52.528;13.340;2024-02-21T09:16:26;15.57;;;8.20;;
16577;SDS011;8401;52.528;13.340;2024-02-21T09:18:51;15.57;;;8.40;;
16577;SDS011;8401;52.528;13.340;2024-02-21T09:21:17;19.20;;;8.27;;
16577;SDS011;8401;52.528;13.340;2024-02-21T09:23:43;15.57;;;8.47;;
16577;SDS011;8401;52.528;13.340;2024-02-21T09:26:10;15.43;;;8.13;;
16577;SDS011;8401;52.528;13.340;2024-02-21T09:28:39;15.50;;;8.00;;
16577;SDS011;8401;52.528;13.340;2024-02-21T09:31:04;19.50;;;8.73;;
16577;SDS011;8401;52.528;13.340;2024-02-21T09:33:30;19.33;;;9.37;;
16577;SDS011;8401;52.528;13.340;2024-02-21T09:35:56;15.97;;;8.30;;
16577;SDS011;8401;52.528;13.340;2024-02-21T09:38:21;13.73;;;8.27;;
16577;SDS011;8401;52.528;13.340;2024-02-21T09:40:47;15.60;;;8.40;;
16577;SDS011;8401;52.528;13.340;2024-02-21T09:43:19;13.43;;;7.43;;
16577;SDS011;8401;52.528;13.340;2024-02-21T09:45:46;14.23;;;8.70;;
16577;SDS011;8401;52.528;13.340;2024-02-21T09:51:07;13.63;;;8.27;;
16577;SDS011;8401;52.528;13.340;2024-02-21T09:53:35;14.70;;;8.37;;
16577;SDS011;8401;52.528;13.340;2024-02-21T09:56:03;13.33;;;7.83;;
16577;SDS011;8401;52.528;13.340;2024-02-21T09:58:32;16.47;;;8.47;;
16577;SDS011;8401;52.528;13.340;2024-02-21T10:00:59;16.13;;;8.73;;
16577;SDS011;8401;52.528;13.340;2024-02-21T10:03:25;16.33;;;8.17;;
16577;SDS011;8401;52.528;13.340;2024-02-21T10:05:51;15.03;;;8.77;;
16577;SDS011;8401;52.528;13.340;2024-02-21T10:08:17;14.30;;;8.30;;
16577;SDS011;8401;52.528;13.340;2024-02-21T10:10:44;15.13;;;8.70;;
16577;SDS011;8401;52.528;13.340;2024-02-21T10:13:22;15.50;;;8.37;;
16577;SDS011;8401;52.528;13.340;2024-02-21T10:16:04;16.90;;;9.23;;
16577;SDS011;8401;52.528;13.340;2024-02-21T10:18:31;16.13;;;8.30;;
16577;SDS011;8401;52.528;13.340;2024-02-21T10:21:03;19.27;;;9.37;;
16577;SDS011;8401;52.528;13.340;2024-02-21T10:23:40;14.07;;;8.67;;
16577;SDS011;8401;52.528;13.340;2024-02-21T10:26:10;17.23;;;8.83;;
16577;SDS011;8401;52.528;13.340;2024-02-21T10:28:36;14.60;;;8.20;;
16577;SDS011;8401;52.528;13.340;2024-02-21T10:31:09;14.23;;;8.30;;
16577;SDS011;8401;52.528;13.340;2024-02-21T10:36:24;12.37;;;8.10;;
16577;SDS011;8401;52.528;13.340;2024-02-21T10:38:51;14.90;;;7.80;;
16577;SDS011;8401;52.528;13.340;2024-02-21T10:41:19;16.40;;;8.10;;
16577;SDS011;8401;52.528;13.340;2024-02-21T10:43:49;15.10;;;8.13;;
16577;SDS011;8401;52.528;13.340;2024-02-21T10:46:18;15.63;;;8.27;;
16577;SDS011;8401;52.528;13.340;2024-02-21T10:48:45;14.57;;;8.00;;
16577;SDS011;8401;52.528;13.340;2024-02-21T10:51:19;13.73;;;8.27;;
16577;SDS011;8401;52.528;13.340;2024-02-21T10:53:48;16.40;;;8.10;;
16577;SDS011;8401;52.528;13.340;2024-02-21T10:56:34;18.10;;;7.90;;
16577;SDS011;8401;52.528;13.340;2024-02-21T10:59:04;13.03;;;7.67;;
16577;SDS011;8401;52.528;13.340;2024-02-21T11:01:30;15.87;;;7.50;;
16577;SDS011;8401;52.528;13.340;2024-02-21T11:04:06;12.97;;;6.70;;
16577;SDS011;8401;52.528;13.340;2024-02-21T11:06:37;12.93;;;7.63;;
16577;SDS011;8401;52.528;13.340;2024-02-21T11:09:07;17.03;;;8.90;;
16577;SDS011;8401;52.528;13.340;2024-02-21T11:14:04;12.17;;;7.63;;
16577;SDS011;8401;52.528;13.340;2024-02-21T11:16:40;12.60;;;7.13;;
16577;SDS011;8401;52.528;13.340;2024-02-21T11:21:46;11.37;;;6.47;;
16577;SDS011;8401;52.528;13.340;2024-02-21T11:24:27;9.20;;;5.77;;
16577;SDS011;8401;52.528;13.340;2024-02-21T11:29:48;10.80;;;6.03;;
16577;SDS011;8401;52.528;13.340;2024-02-21T11:32:19;10.23;;;5.40;;
16577;SDS011;8401;52.528;13.340;2024-02-21T11:34:54;12.43;;;6.93;;
16577;SDS011;8401;52.528;13.340;2024-02-21T11:37:21;10.83;;;6.23;;
16577;SDS011;8401;52.528;13.340;2024-02-21T11:39:51;8.40;;;5.27;;
16577;SDS011;8401;52.528;13.340;2024-02-21T11:42:18;8.97;;;4.87;;
16577;SDS011;8401;52.528;13.340;2024-02-21T11:44:44;9.03;;;5.33;;
16577;SDS011;8401;52.528;13.340;2024-02-21T11:47:09;9.27;;;5.67;;
16577;SDS011;8401;52.528;13.340;2024-02-21T11:49:39;8.43;;;5.13;;
16577;SDS011;8401;52.528;13.340;2024-02-21T11:52:10;6.70;;;5.60;;
16577;SDS011;8401;52.528;13.340;2024-02-21T11:54:36;13.33;;;5.40;;
16577;SDS011;8401;52.528;13.340;2024-02-21T11:57:01;7.53;;;4.57;;
16577;SDS011;8401;52.528;13.340;2024-02-21T11:59:32;8.23;;;5.70;;
16577;SDS011;8401;52.528;13.340;2024-02-21T12:01:59;9.13;;;4.93;;
16577;SDS011;8401;52.528;13.340;2024-02-21T12:04:25;9.27;;;4.87;;
16577;SDS011;8401;52.528;13.340;2024-02-21T12:06:52;8.40;;;5.23;;
16577;SDS011;8401;52.528;13.340;2024-02-21T12:09:19;9.20;;;5.20;;
16577;SDS011;8401;52.528;13.340;2024-02-21T12:11:45;9.77;;;5.00;;
16577;SDS011;8401;52.528;13.340;2024-02-21T12:14:15;9.70;;;5.00;;
16577;SDS011;8401;52.528;13.340;2024-02-21T12:16:41;8.17;;;5.27;;
16577;SDS011;8401;52.528;13.340;2024-02-21T12:19:09;5.50;;;4.70;;
16577;SDS011;8401;52.528;13.340;2024-02-21T12:21:35;10.03;;;5.30;;
16577;SDS011;8401;52.528;13.340;2024-02-21T12:27:00;8.47;;;5.17;;
16577;SDS011;8401;52.528;13.340;2024-02-21T12:29:28;7.50;;;4.60;;
16577;SDS011;8401;52.528;13.340;2024-02-21T12:31:55;9.63;;;5.60;;
16577;SDS011;8401;52.528;13.340;2024-02-21T12:34:20;7.37;;;5.00;;
16577;SDS011;8401;52.528;13.340;2024-02-21T12:36:47;5.80;;;4.30;;
16577;SDS011;8401;52.528;13.340;2024-02-21T12:39:13;8.27;;;4.60;;
16577;SDS011;8401;52.528;13.340;2024-02-21T12:41:39;7.30;;;4.13;;
16577;SDS011;8401;52.528;13.340;2024-02-21T12:44:06;7.83;;;4.40;;
16577;SDS011;8401;52.528;13.340;2024-02-21T12:46:34;10.17;;;4.70;;
16577;SDS011;8401;52.528;13.340;2024-02-21T12:49:01;7.87;;;4.57;;
16577;SDS011;8401;52.528;13.340;2024-02-21T12:51:27;6.77;;;3.80;;
16577;SDS011;8401;52.528;13.340;2024-02-21T12:53:53;7.70;;;4.27;;
16577;SDS011;8401;52.528;13.340;2024-02-21T12:56:19;6.47;;;4.10;;
16577;SDS011;8401;52.528;13.340;2024-02-21T12:58:45;6.97;;;4.37;;
16577;SDS011;8401;52.528;13.340;2024-02-21T13:01:11;7.90;;;4.50;;
16577;SDS011;8401;52.528;13.340;2024-02-21T13:03:36;8.73;;;4.47;;
16577;SDS011;8401;52.528;13.340;2024-02-21T13:06:03;6.63;;;4.00;;
16577;SDS011;8401;52.528;13.340;2024-02-21T13:08:29;5.47;;;4.07;;
16577;SDS011;8401;52.528;13.340;2024-02-21T13:10:54;7.83;;;4.03;;
16577;SDS011;8401;52.528;13.340;2024-02-21T13:13:20;7.07;;;4.17;;
16577;SDS011;8401;52.528;13.340;2024-02-21T13:15:46;8.07;;;4.37;;
16577;SDS011;8401;52.528;13.340;2024-02-21T13:18:11;9.00;;;4.43;;
16577;SDS011;8401;52.528;13.340;2024-02-21T13:20:37;6.63;;;4.07;;
16577;SDS011;8401;52.528;13.340;2024-02-21T13:23:03;7.23;;;3.70;;
16577;SDS011;8401;52.528;13.340;2024-02-21T13:25:29;11.43;;;4.37;;
16577;SDS011;8401;52.528;13.340;2024-02-21T13:27:55;7.00;;;4.23;;
16577;SDS011;8401;52.528;13.340;2024-02-21T13:30:21;7.03;;;3.80;;
16577;SDS011;8401;52.528;13.340;2024-02-21T13:32:47;9.33;;;4.23;;
16577;SDS011;8401;52.528;13.340;2024-02-21T13:35:13;7.97;;;4.13;;
16577;SDS011;8401;52.528;13.340;2024-02-21T13:37:39;9.03;;;4.83;;
16577;SDS011;8401;52.528;13.340;2024-02-21T13:40:05;8.40;;;4.53;;
16577;SDS011;8401;52.528;13.340;2024-02-21T13:42:33;7.90;;;4.30;;
16577;SDS011;8401;52.528;13.340;2024-02-21T13:44:59;9.27;;;5.23;;
16577;SDS011;8401;52.528;13.340;2024-02-21T13:47:26;7.97;;;4.27;;
16577;SDS011;8401;52.528;13.340;2024-02-21T13:49:51;11.27;;;4.40;;
16577;SDS011;8401;52.528;13.340;2024-02-21T13:52:17;9.43;;;4.50;;
16577;SDS011;8401;52.528;13.340;2024-02-21T13:54:45;10.40;;;4.63;;
16577;SDS011;8401;52.528;13.340;2024-02-21T13:57:11;8.27;;;4.53;;
16577;SDS011;8401;52.528;13.340;2024-02-21T13:59:37;7.13;;;4.20;;
16577;SDS011;8401;52.528;13.340;2024-02-21T14:02:04;7.93;;;4.03;;
16577;SDS011;8401;52.528;13.340;2024-02-21T14:04:32;8.60;;;4.30;;
16577;SDS011;8401;52.528;13.340;2024-02-21T14:06:58;7.87;;;3.77;;
16577;SDS011;8401;52.528;13.340;2024-02-21T14:09:23;9.63;;;3.93;;
16577;SDS011;8401;52.528;13.340;2024-02-21T14:11:49;6.37;;;3.60;;
16577;SDS011;8401;52.528;13.340;2024-02-21T14:14:14;7.97;;;4.00;;
16577;SDS011;8401;52.528;13.340;2024-02-21T14:16:40;8.07;;;4.00;;
16577;SDS011;8401;52.528;13.340;2024-02-21T14:19:06;7.73;;;4.40;;
16577;SDS011;8401;52.528;13.340;2024-02-21T14:21:33;7.63;;;3.53;;
16577;SDS011;8401;52.528;13.340;2024-02-21T14:24:02;8.00;;;3.73;;
16577;SDS011;8401;52.528;13.340;2024-02-21T14:26:31;6.30;;;3.70;;
16577;SDS011;8401;52.528;13.340;2024-02-21T14:28:57;9.77;;;3.90;;
16577;SDS011;8401;52.528;13.340;2024-02-21T14:31:23;9.70;;;3.80;;
16577;SDS011;8401;52.528;13.340;2024-02-21T14:33:48;5.33;;;3.60;;
16577;SDS011;8401;52.528;13.340;2024-02-21T14:36:14;6.23;;;4.03;;
16577;SDS011;8401;52.528;13.340;2024-02-21T14:38:43;8.43;;;4.33;;
16577;SDS011;8401;52.528;13.340;2024-02-21T14:41:12;10.17;;;4.27;;
16577;SDS011;8401;52.528;13.340;2024-02-21T14:43:38;8.00;;;3.40;;
16577;SDS011;8401;52.528;13.340;2024-02-21T14:46:04;8.60;;;4.10;;
16577;SDS011;8401;52.528;13.340;2024-02-21T14:48:30;6.80;;;3.70;;
16577;SDS011;8401;52.528;13.340;2024-02-21T14:50:59;9.60;;;4.40;;